sensor_id;sensor_type;location;lat;lon;timestamp;P1;durP1;ratioP1;P2;durP2;ratioP2
12838;SDS011;6486;51.034;5.262;2023-10-31T00:00:25;3.17;;;2.20;;
12838;SDS011;6486;51.034;5.262;2023-10-31T00:02:50;1.80;;;0.80;;
12838;SDS011;6486;51.034;5.262;2023-10-31T00:05:16;2.20;;;1.23;;
12838;SDS011;6486;51.034;5.262;2023-10-31T00:07:41;2.37;;;1.30;;
12838;SDS011;6486;51.034;5.262;2023-10-31T00:10:07;2.30;;;1.87;;
12838;SDS011;6486;51.034;5.262;2023-10-31T00:12:34;1.00;;;0.93;;
12838;SDS011;6486;51.034;5.262;2023-10-31T00:14:59;8.93;;;1.97;;
12838;SDS011;6486;51.034;5.262;2023-10-31T00:17:25;2.47;;;0.83;;
12838;SDS011;6486;51.034;5.262;2023-10-31T00:19:50;1.70;;;0.70;;
12838;SDS011;6486;51.034;5.262;2023-10-31T00:22:16;0.97;;;0.70;;
12838;SDS011;6486;51.034;5.262;2023-10-31T00:24:42;0.93;;;0.90;;
12838;SDS011;6486;51.034;5.262;2023-10-31T00:27:08;1.30;;;0.83;;
12838;SDS011;6486;51.034;5.262;2023-10-31T00:29:34;1.27;;;1.13;;
12838;SDS011;6486;51.034;5.262;2023-10-31T00:31:59;11.77;;;1.17;;
12838;SDS011;6486;51.034;5.262;2023-10-31T00:34:25;0.60;;;0.60;;
12838;SDS011;6486;51.034;5.262;2023-10-31T00:36:51;1.93;;;0.80;;
12838;SDS011;6486;51.034;5.262;2023-10-31T00:39:16;4.23;;;0.67;;
12838;SDS011;6486;51.034;5.262;2023-10-31T00:41:45;2.57;;;1.33;;
12838;SDS011;6486;51.034;5.262;2023-10-31T00:44:11;0.80;;;0.80;;
12838;SDS011;6486;51.034;5.262;2023-10-31T00:46:37;0.60;;;0.60;;
12838;SDS011;6486;51.034;5.262;2023-10-31T00:49:03;1.07;;;0.87;;
12838;SDS011;6486;51.034;5.262;2023-10-31T00:51:28;2.33;;;1.17;;
12838;SDS011;6486;51.034;5.262;2023-10-31T00:53:54;2.93;;;2.20;;
12838;SDS011;6486;51.034;5.262;2023-10-31T00:56:20;3.33;;;2.30;;
12838;SDS011;6486;51.034;5.262;2023-10-31T00:58:45;2.13;;;1.93;;
12838;SDS011;6486;51.034;5.262;2023-10-31T01:01:11;5.63;;;2.07;;
12838;SDS011;6486;51.034;5.262;2023-10-31T01:03:36;1.50;;;1.40;;
12838;SDS011;6486;51.034;5.262;2023-10-31T01:06:02;2.87;;;2.17;;
12838;SDS011;6486;51.034;5.262;2023-10-31T01:08:28;4.83;;;2.20;;
12838;SDS011;6486;51.034;5.262;2023-10-31T01:10:54;2.73;;;1.73;;
12838;SDS011;6486;51.034;5.262;2023-10-31T01:13:20;8.43;;;1.90;;
12838;SDS011;6486;51.034;5.262;2023-10-31T01:15:46;2.57;;;1.97;;
12838;SDS011;6486;51.034;5.262;2023-10-31T01:18:11;1.60;;;1.50;;
12838;SDS011;6486;51.034;5.262;2023-10-31T01:20:37;6.27;;;3.63;;
12838;SDS011;6486;51.034;5.262;2023-10-31T01:23:03;4.67;;;2.67;;
12838;SDS011;6486;51.034;5.262;2023-10-31T01:25:29;2.10;;;1.87;;
12838;SDS011;6486;51.034;5.262;2023-10-31T01:27:54;4.50;;;2.80;;
12838;SDS011;6486;51.034;5.262;2023-10-31T01:30:20;4.63;;;3.07;;
12838;SDS011;6486;51.034;5.262;2023-10-31T01:32:45;3.43;;;2.17;;
12838;SDS011;6486;51.034;5.262;2023-10-31T01:35:11;2.00;;;1.80;;
12838;SDS011;6486;51.034;5.262;2023-10-31T01:37:37;3.60;;;3.03;;
12838;SDS011;6486;51.034;5.262;2023-10-31T01:40:03;4.73;;;2.43;;
12838;SDS011;6486;51.034;5.262;2023-10-31T01:42:29;7.97;;;2.93;;
12838;SDS011;6486;51.034;5.262;2023-10-31T01:44:54;4.63;;;2.60;;
12838;SDS011;6486;51.034;5.262;2023-10-31T01:47:20;4.50;;;3.43;;
12838;SDS011;6486;51.034;5.262;2023-10-31T01:49:47;4.87;;;3.03;;
12838;SDS011;6486;51.034;5.262;2023-10-31T01:52:13;4.43;;;2.63;;
12838;SDS011;6486;51.034;5.262;2023-10-31T01:54:38;4.17;;;2.63;;
12838;SDS011;6486;51.034;5.262;2023-10-31T01:57:04;3.40;;;2.50;;
12838;SDS011;6486;51.034;5.262;2023-10-31T01:59:30;7.20;;;2.97;;
12838;SDS011;6486;51.034;5.262;2023-10-31T02:01:56;2.73;;;2.53;;
12838;SDS011;6486;51.034;5.262;2023-10-31T02:04:23;4.10;;;2.47;;
12838;SDS011;6486;51.034;5.262;2023-10-31T02:06:49;4.23;;;2.67;;
12838;SDS011;6486;51.034;5.262;2023-10-31T02:09:15;4.17;;;2.87;;
12838;SDS011;6486;51.034;5.262;2023-10-31T02:11:41;2.97;;;2.23;;
12838;SDS011;6486;51.034;5.262;2023-10-31T02:14:07;3.83;;;2.53;;
12838;SDS011;6486;51.034;5.262;2023-10-31T02:16:32;3.30;;;2.37;;
12838;SDS011;6486;51.034;5.262;2023-10-31T02:18:58;10.97;;;2.70;;
12838;SDS011;6486;51.034;5.262;2023-10-31T02:21:23;3.03;;;1.70;;
12838;SDS011;6486;51.034;5.262;2023-10-31T02:24:00;11.77;;;2.40;;
12838;SDS011;6486;51.034;5.262;2023-10-31T02:26:29;2.50;;;2.30;;
12838;SDS011;6486;51.034;5.262;2023-10-31T02:28:56;4.20;;;3.80;;
12838;SDS011;6486;51.034;5.262;2023-10-31T02:31:22;3.93;;;2.33;;
12838;SDS011;6486;51.034;5.262;2023-10-31T02:33:48;2.93;;;1.63;;
12838;SDS011;6486;51.034;5.262;2023-10-31T02:36:13;4.90;;;1.63;;
12838;SDS011;6486;51.034;5.262;2023-10-31T02:38:39;1.80;;;1.27;;
12838;SDS011;6486;51.034;5.262;2023-10-31T02:41:04;3.20;;;2.83;;
12838;SDS011;6486;51.034;5.262;2023-10-31T02:43:30;5.70;;;2.50;;
12838;SDS011;6486;51.034;5.262;2023-10-31T02:45:56;2.90;;;1.60;;
12838;SDS011;6486;51.034;5.262;2023-10-31T02:48:22;2.03;;;1.93;;
12838;SDS011;6486;51.034;5.262;2023-10-31T02:50:49;3.03;;;2.67;;
12838;SDS011;6486;51.034;5.262;2023-10-31T02:53:17;2.73;;;2.03;;
12838;SDS011;6486;51.034;5.262;2023-10-31T02:55:43;3.63;;;1.43;;
12838;SDS011;6486;51.034;5.262;2023-10-31T02:58:09;1.53;;;1.07;;
12838;SDS011;6486;51.034;5.262;2023-10-31T03:00:35;3.70;;;1.20;;
12838;SDS011;6486;51.034;5.262;2023-10-31T03:03:01;1.10;;;1.00;;
12838;SDS011;6486;51.034;5.262;2023-10-31T03:05:27;3.97;;;1.93;;
12838;SDS011;6486;51.034;5.262;2023-10-31T03:07:52;2.63;;;1.37;;
12838;SDS011;6486;51.034;5.262;2023-10-31T03:10:19;1.53;;;1.37;;
12838;SDS011;6486;51.034;5.262;2023-10-31T03:12:45;3.57;;;1.30;;
12838;SDS011;6486;51.034;5.262;2023-10-31T03:15:11;5.30;;;1.03;;
12838;SDS011;6486;51.034;5.262;2023-10-31T03:17:36;4.10;;;2.40;;
12838;SDS011;6486;51.034;5.262;2023-10-31T03:20:02;1.77;;;1.07;;
12838;SDS011;6486;51.034;5.262;2023-10-31T03:22:28;2.57;;;1.53;;
12838;SDS011;6486;51.034;5.262;2023-10-31T03:24:54;2.07;;;1.57;;
12838;SDS011;6486;51.034;5.262;2023-10-31T03:27:19;1.47;;;1.37;;
12838;SDS011;6486;51.034;5.262;2023-10-31T03:29:45;3.03;;;1.33;;
12838;SDS011;6486;51.034;5.262;2023-10-31T03:32:11;3.20;;;1.53;;
12838;SDS011;6486;51.034;5.262;2023-10-31T03:34:37;1.20;;;0.70;;
12838;SDS011;6486;51.034;5.262;2023-10-31T03:37:03;12.93;;;1.93;;
12838;SDS011;6486;51.034;5.262;2023-10-31T03:39:29;3.57;;;1.37;;
12838;SDS011;6486;51.034;5.262;2023-10-31T03:41:55;2.40;;;2.13;;
12838;SDS011;6486;51.034;5.262;2023-10-31T03:44:20;1.93;;;1.40;;
12838;SDS011;6486;51.034;5.262;2023-10-31T03:46:46;1.23;;;0.83;;
12838;SDS011;6486;51.034;5.262;2023-10-31T03:49:12;0.90;;;0.90;;
12838;SDS011;6486;51.034;5.262;2023-10-31T03:51:37;1.77;;;1.23;;
12838;SDS011;6486;51.034;5.262;2023-10-31T03:54:03;3.63;;;1.50;;
12838;SDS011;6486;51.034;5.262;2023-10-31T03:56:28;2.20;;;1.60;;
12838;SDS011;6486;51.034;5.262;2023-10-31T03:58:54;1.70;;;1.17;;
12838;SDS011;6486;51.034;5.262;2023-10-31T04:01:20;2.00;;;1.30;;
12838;SDS011;6486;51.034;5.262;2023-10-31T04:03:45;3.10;;;1.27;;
12838;SDS011;6486;51.034;5.262;2023-10-31T04:06:11;0.70;;;0.70;;
12838;SDS011;6486;51.034;5.262;2023-10-31T04:08:37;2.93;;;1.07;;
12838;SDS011;6486;51.034;5.262;2023-10-31T04:11:02;4.20;;;0.87;;
12838;SDS011;6486;51.034;5.262;2023-10-31T04:13:28;5.03;;;1.03;;
12838;SDS011;6486;51.034;5.262;2023-10-31T04:15:54;1.30;;;1.20;;
12838;SDS011;6486;51.034;5.262;2023-10-31T04:18:19;2.10;;;1.10;;
12838;SDS011;6486;51.034;5.262;2023-10-31T04:20:45;1.40;;;1.07;;
12838;SDS011;6486;51.034;5.262;2023-10-31T04:23:11;2.43;;;1.73;;
12838;SDS011;6486;51.034;5.262;2023-10-31T04:25:37;2.20;;;1.40;;
12838;SDS011;6486;51.034;5.262;2023-10-31T04:28:02;1.03;;;0.83;;
12838;SDS011;6486;51.034;5.262;2023-10-31T04:30:28;1.10;;;0.87;;
12838;SDS011;6486;51.034;5.262;2023-10-31T04:32:54;8.03;;;1.03;;
12838;SDS011;6486;51.034;5.262;2023-10-31T04:35:20;1.03;;;0.93;;
12838;SDS011;6486;51.034;5.262;2023-10-31T04:37:45;1.93;;;0.97;;
12838;SDS011;6486;51.034;5.262;2023-10-31T04:40:11;2.07;;;1.67;;
12838;SDS011;6486;51.034;5.262;2023-10-31T04:42:40;1.47;;;1.03;;
12838;SDS011;6486;51.034;5.262;2023-10-31T04:45:07;1.33;;;1.13;;
12838;SDS011;6486;51.034;5.262;2023-10-31T04:47:33;4.00;;;0.93;;
12838;SDS011;6486;51.034;5.262;2023-10-31T04:49:58;1.50;;;1.37;;
12838;SDS011;6486;51.034;5.262;2023-10-31T04:52:24;2.10;;;1.13;;
12838;SDS011;6486;51.034;5.262;2023-10-31T04:54:51;1.33;;;1.20;;
12838;SDS011;6486;51.034;5.262;2023-10-31T04:57:16;1.53;;;0.73;;
12838;SDS011;6486;51.034;5.262;2023-10-31T04:59:42;0.87;;;0.80;;
12838;SDS011;6486;51.034;5.262;2023-10-31T05:02:08;0.57;;;0.57;;
12838;SDS011;6486;51.034;5.262;2023-10-31T05:04:33;1.53;;;1.00;;
12838;SDS011;6486;51.034;5.262;2023-10-31T05:07:02;0.80;;;0.80;;
12838;SDS011;6486;51.034;5.262;2023-10-31T05:09:28;1.53;;;1.43;;
12838;SDS011;6486;51.034;5.262;2023-10-31T05:11:54;4.03;;;1.40;;
12838;SDS011;6486;51.034;5.262;2023-10-31T05:14:20;1.00;;;0.83;;
12838;SDS011;6486;51.034;5.262;2023-10-31T05:16:45;4.37;;;1.20;;
12838;SDS011;6486;51.034;5.262;2023-10-31T05:19:11;5.93;;;0.83;;
12838;SDS011;6486;51.034;5.262;2023-10-31T05:21:37;1.93;;;1.23;;
12838;SDS011;6486;51.034;5.262;2023-10-31T05:24:02;1.00;;;0.47;;
12838;SDS011;6486;51.034;5.262;2023-10-31T05:26:28;1.43;;;1.07;;
12838;SDS011;6486;51.034;5.262;2023-10-31T05:28:54;1.10;;;1.00;;
12838;SDS011;6486;51.034;5.262;2023-10-31T05:31:22;2.63;;;0.90;;
12838;SDS011;6486;51.034;5.262;2023-10-31T05:33:48;0.50;;;0.50;;
12838;SDS011;6486;51.034;5.262;2023-10-31T05:36:20;1.43;;;1.00;;
12838;SDS011;6486;51.034;5.262;2023-10-31T05:38:47;1.17;;;1.03;;
12838;SDS011;6486;51.034;5.262;2023-10-31T05:41:13;2.87;;;1.03;;
12838;SDS011;6486;51.034;5.262;2023-10-31T05:43:39;0.90;;;0.70;;
12838;SDS011;6486;51.034;5.262;2023-10-31T05:46:05;2.50;;;0.63;;
12838;SDS011;6486;51.034;5.262;2023-10-31T05:48:31;0.70;;;0.70;;
12838;SDS011;6486;51.034;5.262;2023-10-31T05:50:57;1.90;;;1.10;;
12838;SDS011;6486;51.034;5.262;2023-10-31T05:53:23;0.87;;;0.70;;
12838;SDS011;6486;51.034;5.262;2023-10-31T05:55:48;1.10;;;0.53;;
12838;SDS011;6486;51.034;5.262;2023-10-31T05:58:14;0.50;;;0.43;;
12838;SDS011;6486;51.034;5.262;2023-10-31T06:00:39;1.33;;;1.17;;
12838;SDS011;6486;51.034;5.262;2023-10-31T06:03:05;0.73;;;0.53;;
12838;SDS011;6486;51.034;5.262;2023-10-31T06:05:31;1.77;;;1.40;;
12838;SDS011;6486;51.034;5.262;2023-10-31T06:07:56;1.53;;;1.43;;
12838;SDS011;6486;51.034;5.262;2023-10-31T06:10:22;0.73;;;0.60;;
12838;SDS011;6486;51.034;5.262;2023-10-31T06:12:48;2.07;;;0.73;;
12838;SDS011;6486;51.034;5.262;2023-10-31T06:15:13;2.70;;;1.23;;
12838;SDS011;6486;51.034;5.262;2023-10-31T06:17:39;2.07;;;1.67;;
12838;SDS011;6486;51.034;5.262;2023-10-31T06:20:08;2.33;;;0.90;;
12838;SDS011;6486;51.034;5.262;2023-10-31T06:22:34;1.20;;;0.70;;
12838;SDS011;6486;51.034;5.262;2023-10-31T06:24:59;3.10;;;1.30;;
12838;SDS011;6486;51.034;5.262;2023-10-31T06:27:26;1.07;;;1.00;;
12838;SDS011;6486;51.034;5.262;2023-10-31T06:29:51;6.73;;;1.57;;
12838;SDS011;6486;51.034;5.262;2023-10-31T06:32:17;0.80;;;0.80;;
12838;SDS011;6486;51.034;5.262;2023-10-31T06:34:43;1.67;;;0.93;;
12838;SDS011;6486;51.034;5.262;2023-10-31T06:37:09;9.53;;;1.77;;
12838;SDS011;6486;51.034;5.262;2023-10-31T06:39:34;1.50;;;1.30;;
12838;SDS011;6486;51.034;5.262;2023-10-31T06:42:00;2.63;;;1.50;;
12838;SDS011;6486;51.034;5.262;2023-10-31T06:44:25;0.90;;;0.90;;
12838;SDS011;6486;51.034;5.262;2023-10-31T06:46:51;0.93;;;0.70;;
12838;SDS011;6486;51.034;5.262;2023-10-31T06:49:17;1.53;;;0.87;;
12838;SDS011;6486;51.034;5.262;2023-10-31T06:51:44;1.90;;;1.13;;
12838;SDS011;6486;51.034;5.262;2023-10-31T06:54:10;1.03;;;0.90;;
12838;SDS011;6486;51.034;5.262;2023-10-31T06:56:35;1.43;;;1.23;;
12838;SDS011;6486;51.034;5.262;2023-10-31T06:59:01;2.20;;;1.03;;
12838;SDS011;6486;51.034;5.262;2023-10-31T07:01:26;1.13;;;0.80;;
12838;SDS011;6486;51.034;5.262;2023-10-31T07:03:52;2.53;;;1.03;;
12838;SDS011;6486;51.034;5.262;2023-10-31T07:06:17;1.43;;;1.10;;
12838;SDS011;6486;51.034;5.262;2023-10-31T07:08:43;1.40;;;1.20;;
12838;SDS011;6486;51.034;5.262;2023-10-31T07:11:09;2.73;;;1.00;;
12838;SDS011;6486;51.034;5.262;2023-10-31T07:13:35;3.03;;;1.10;;
12838;SDS011;6486;51.034;5.262;2023-10-31T07:16:01;1.70;;;1.40;;
12838;SDS011;6486;51.034;5.262;2023-10-31T07:18:27;1.83;;;0.80;;
12838;SDS011;6486;51.034;5.262;2023-10-31T07:20:53;2.13;;;1.40;;
12838;SDS011;6486;51.034;5.262;2023-10-31T07:23:18;1.33;;;0.90;;
12838;SDS011;6486;51.034;5.262;2023-10-31T07:25:44;1.23;;;0.80;;
12838;SDS011;6486;51.034;5.262;2023-10-31T07:28:10;2.50;;;1.37;;
12838;SDS011;6486;51.034;5.262;2023-10-31T07:30:36;1.67;;;1.57;;
12838;SDS011;6486;51.034;5.262;2023-10-31T07:33:02;3.53;;;1.67;;
12838;SDS011;6486;51.034;5.262;2023-10-31T07:35:27;1.20;;;1.10;;
12838;SDS011;6486;51.034;5.262;2023-10-31T07:37:53;1.50;;;1.10;;
12838;SDS011;6486;51.034;5.262;2023-10-31T07:40:19;5.10;;;1.30;;
12838;SDS011;6486;51.034;5.262;2023-10-31T07:42:44;3.73;;;1.47;;
12838;SDS011;6486;51.034;5.262;2023-10-31T07:45:10;1.57;;;1.10;;
12838;SDS011;6486;51.034;5.262;2023-10-31T07:47:36;1.73;;;1.50;;
12838;SDS011;6486;51.034;5.262;2023-10-31T07:50:02;2.33;;;1.30;;
12838;SDS011;6486;51.034;5.262;2023-10-31T07:52:28;3.33;;;1.83;;
12838;SDS011;6486;51.034;5.262;2023-10-31T07:54:53;2.40;;;1.27;;
12838;SDS011;6486;51.034;5.262;2023-10-31T07:57:19;2.67;;;0.80;;
12838;SDS011;6486;51.034;5.262;2023-10-31T07:59:44;1.23;;;0.73;;
12838;SDS011;6486;51.034;5.262;2023-10-31T08:02:10;1.20;;;0.90;;
12838;SDS011;6486;51.034;5.262;2023-10-31T08:04:36;2.63;;;1.77;;
12838;SDS011;6486;51.034;5.262;2023-10-31T08:07:01;2.50;;;1.00;;
12838;SDS011;6486;51.034;5.262;2023-10-31T08:09:27;1.60;;;1.17;;
12838;SDS011;6486;51.034;5.262;2023-10-31T08:11:53;2.40;;;1.17;;
12838;SDS011;6486;51.034;5.262;2023-10-31T08:14:19;2.27;;;1.00;;
12838;SDS011;6486;51.034;5.262;2023-10-31T08:16:44;1.23;;;1.10;;
12838;SDS011;6486;51.034;5.262;2023-10-31T08:19:10;1.73;;;1.23;;
12838;SDS011;6486;51.034;5.262;2023-10-31T08:21:37;3.47;;;1.37;;
12838;SDS011;6486;51.034;5.262;2023-10-31T08:24:03;0.93;;;0.70;;
12838;SDS011;6486;51.034;5.262;2023-10-31T08:26:30;2.27;;;1.03;;
12838;SDS011;6486;51.034;5.262;2023-10-31T08:28:57;1.50;;;1.23;;
12838;SDS011;6486;51.034;5.262;2023-10-31T08:31:22;0.93;;;0.77;;
12838;SDS011;6486;51.034;5.262;2023-10-31T08:33:48;1.57;;;0.93;;
12838;SDS011;6486;51.034;5.262;2023-10-31T08:36:14;1.40;;;0.73;;
12838;SDS011;6486;51.034;5.262;2023-10-31T08:38:40;3.30;;;1.30;;
12838;SDS011;6486;51.034;5.262;2023-10-31T08:41:05;4.20;;;1.10;;
12838;SDS011;6486;51.034;5.262;2023-10-31T08:43:31;2.17;;;0.67;;
12838;SDS011;6486;51.034;5.262;2023-10-31T08:45:56;2.40;;;1.63;;
12838;SDS011;6486;51.034;5.262;2023-10-31T08:48:22;1.27;;;0.87;;
12838;SDS011;6486;51.034;5.262;2023-10-31T08:50:48;1.20;;;0.70;;
12838;SDS011;6486;51.034;5.262;2023-10-31T08:53:13;1.90;;;0.70;;
12838;SDS011;6486;51.034;5.262;2023-10-31T08:55:39;0.77;;;0.77;;
12838;SDS011;6486;51.034;5.262;2023-10-31T08:58:08;1.80;;;0.67;;
12838;SDS011;6486;51.034;5.262;2023-10-31T09:00:35;0.83;;;0.70;;
12838;SDS011;6486;51.034;5.262;2023-10-31T09:03:01;2.13;;;0.70;;
12838;SDS011;6486;51.034;5.262;2023-10-31T09:05:27;0.50;;;0.50;;
12838;SDS011;6486;51.034;5.262;2023-10-31T09:07:52;1.33;;;0.67;;
12838;SDS011;6486;51.034;5.262;2023-10-31T09:10:18;0.83;;;0.80;;
12838;SDS011;6486;51.034;5.262;2023-10-31T09:12:43;0.93;;;0.77;;
12838;SDS011;6486;51.034;5.262;2023-10-31T09:15:09;2.27;;;1.27;;
12838;SDS011;6486;51.034;5.262;2023-10-31T09:17:35;2.83;;;0.87;;
12838;SDS011;6486;51.034;5.262;2023-10-31T09:20:00;0.63;;;0.47;;
12838;SDS011;6486;51.034;5.262;2023-10-31T09:22:26;1.00;;;0.90;;
12838;SDS011;6486;51.034;5.262;2023-10-31T09:24:52;1.90;;;0.93;;
12838;SDS011;6486;51.034;5.262;2023-10-31T09:27:17;2.77;;;1.17;;
12838;SDS011;6486;51.034;5.262;2023-10-31T09:29:43;0.50;;;0.47;;
12838;SDS011;6486;51.034;5.262;2023-10-31T09:32:09;1.17;;;0.60;;
12838;SDS011;6486;51.034;5.262;2023-10-31T09:34:34;1.50;;;1.37;;
12838;SDS011;6486;51.034;5.262;2023-10-31T09:37:00;1.00;;;0.47;;
12838;SDS011;6486;51.034;5.262;2023-10-31T09:39:25;0.70;;;0.70;;
12838;SDS011;6486;51.034;5.262;2023-10-31T09:41:52;0.37;;;0.37;;
12838;SDS011;6486;51.034;5.262;2023-10-31T09:44:18;1.50;;;0.60;;
12838;SDS011;6486;51.034;5.262;2023-10-31T09:46:45;0.13;;;0.13;;
12838;SDS011;6486;51.034;5.262;2023-10-31T09:49:10;0.73;;;0.50;;
12838;SDS011;6486;51.034;5.262;2023-10-31T09:51:37;1.10;;;0.90;;
12838;SDS011;6486;51.034;5.262;2023-10-31T09:54:03;2.33;;;0.50;;
12838;SDS011;6486;51.034;5.262;2023-10-31T09:56:29;0.90;;;0.80;;
12838;SDS011;6486;51.034;5.262;2023-10-31T09:59:00;2.53;;;1.27;;
12838;SDS011;6486;51.034;5.262;2023-10-31T10:01:27;2.17;;;1.17;;
12838;SDS011;6486;51.034;5.262;2023-10-31T10:03:53;3.13;;;1.40;;
12838;SDS011;6486;51.034;5.262;2023-10-31T10:06:20;0.80;;;0.80;;
12838;SDS011;6486;51.034;5.262;2023-10-31T10:08:48;1.27;;;0.93;;
12838;SDS011;6486;51.034;5.262;2023-10-31T10:11:14;1.63;;;1.00;;
12838;SDS011;6486;51.034;5.262;2023-10-31T10:13:40;0.90;;;0.60;;
12838;SDS011;6486;51.034;5.262;2023-10-31T10:16:05;0.57;;;0.43;;
12838;SDS011;6486;51.034;5.262;2023-10-31T10:18:32;0.53;;;0.53;;
12838;SDS011;6486;51.034;5.262;2023-10-31T10:21:05;2.43;;;1.30;;
12838;SDS011;6486;51.034;5.262;2023-10-31T10:23:32;4.20;;;1.07;;
12838;SDS011;6486;51.034;5.262;2023-10-31T10:25:58;1.63;;;1.53;;
12838;SDS011;6486;51.034;5.262;2023-10-31T10:28:25;0.93;;;0.83;;
12838;SDS011;6486;51.034;5.262;2023-10-31T10:30:52;0.60;;;0.20;;
12838;SDS011;6486;51.034;5.262;2023-10-31T10:33:18;2.97;;;0.90;;
12838;SDS011;6486;51.034;5.262;2023-10-31T10:35:45;1.60;;;0.60;;
12838;SDS011;6486;51.034;5.262;2023-10-31T10:38:12;0.60;;;0.60;;
12838;SDS011;6486;51.034;5.262;2023-10-31T10:40:42;0.80;;;0.50;;
12838;SDS011;6486;51.034;5.262;2023-10-31T10:43:13;1.30;;;0.47;;
12838;SDS011;6486;51.034;5.262;2023-10-31T10:45:43;2.73;;;0.90;;
12838;SDS011;6486;51.034;5.262;2023-10-31T10:48:13;1.60;;;0.80;;
12838;SDS011;6486;51.034;5.262;2023-10-31T10:50:42;0.50;;;0.40;;
12838;SDS011;6486;51.034;5.262;2023-10-31T10:53:16;0.70;;;0.53;;
12838;SDS011;6486;51.034;5.262;2023-10-31T10:55:51;0.60;;;0.43;;
12838;SDS011;6486;51.034;5.262;2023-10-31T10:58:33;1.40;;;0.80;;
12838;SDS011;6486;51.034;5.262;2023-10-31T11:01:05;0.40;;;0.40;;
12838;SDS011;6486;51.034;5.262;2023-10-31T11:03:32;0.20;;;0.20;;
12838;SDS011;6486;51.034;5.262;2023-10-31T11:05:59;0.20;;;0.20;;
12838;SDS011;6486;51.034;5.262;2023-10-31T11:08:25;1.13;;;0.97;;
12838;SDS011;6486;51.034;5.262;2023-10-31T11:10:52;2.60;;;0.90;;
12838;SDS011;6486;51.034;5.262;2023-10-31T11:13:19;3.13;;;0.87;;
12838;SDS011;6486;51.034;5.262;2023-10-31T11:15:46;0.70;;;0.70;;
12838;SDS011;6486;51.034;5.262;2023-10-31T11:18:16;1.13;;;0.80;;
12838;SDS011;6486;51.034;5.262;2023-10-31T11:20:42;0.57;;;0.40;;
12838;SDS011;6486;51.034;5.262;2023-10-31T11:23:08;0.77;;;0.77;;
12838;SDS011;6486;51.034;5.262;2023-10-31T11:25:34;0.40;;;0.40;;
12838;SDS011;6486;51.034;5.262;2023-10-31T11:30:41;0.87;;;0.87;;
12838;SDS011;6486;51.034;5.262;2023-10-31T11:33:13;0.77;;;0.40;;
12838;SDS011;6486;51.034;5.262;2023-10-31T11:35:40;1.00;;;0.97;;
12838;SDS011;6486;51.034;5.262;2023-10-31T11:38:08;0.60;;;0.53;;
12838;SDS011;6486;51.034;5.262;2023-10-31T11:40:35;1.37;;;1.27;;
12838;SDS011;6486;51.034;5.262;2023-10-31T11:43:03;0.60;;;0.60;;
12838;SDS011;6486;51.034;5.262;2023-10-31T11:48:06;1.67;;;0.47;;
12838;SDS011;6486;51.034;5.262;2023-10-31T11:50:33;1.90;;;0.60;;
12838;SDS011;6486;51.034;5.262;2023-10-31T11:53:03;0.63;;;0.40;;
12838;SDS011;6486;51.034;5.262;2023-10-31T11:55:40;1.50;;;0.50;;
12838;SDS011;6486;51.034;5.262;2023-10-31T11:58:19;3.60;;;2.10;;
12838;SDS011;6486;51.034;5.262;2023-10-31T12:00:47;2.77;;;1.70;;
12838;SDS011;6486;51.034;5.262;2023-10-31T12:03:15;1.00;;;0.57;;
12838;SDS011;6486;51.034;5.262;2023-10-31T12:05:57;1.30;;;0.67;;
12838;SDS011;6486;51.034;5.262;2023-10-31T12:08:33;4.07;;;1.43;;
12838;SDS011;6486;51.034;5.262;2023-10-31T12:11:17;2.30;;;1.57;;
12838;SDS011;6486;51.034;5.262;2023-10-31T12:13:58;4.13;;;1.33;;
12838;SDS011;6486;51.034;5.262;2023-10-31T12:16:29;0.87;;;0.53;;
12838;SDS011;6486;51.034;5.262;2023-10-31T12:18:56;0.63;;;0.57;;
12838;SDS011;6486;51.034;5.262;2023-10-31T12:24:22;4.10;;;1.00;;
12838;SDS011;6486;51.034;5.262;2023-10-31T12:26:48;3.40;;;0.53;;
12838;SDS011;6486;51.034;5.262;2023-10-31T12:29:15;0.80;;;0.50;;
12838;SDS011;6486;51.034;5.262;2023-10-31T12:31:43;0.70;;;0.70;;
12838;SDS011;6486;51.034;5.262;2023-10-31T12:34:17;1.17;;;0.60;;
12838;SDS011;6486;51.034;5.262;2023-10-31T12:36:45;0.30;;;0.30;;
12838;SDS011;6486;51.034;5.262;2023-10-31T12:39:12;0.53;;;0.37;;
12838;SDS011;6486;51.034;5.262;2023-10-31T12:41:39;3.83;;;0.67;;
12838;SDS011;6486;51.034;5.262;2023-10-31T12:44:06;1.40;;;0.20;;
12838;SDS011;6486;51.034;5.262;2023-10-31T12:46:38;1.20;;;1.00;;
12838;SDS011;6486;51.034;5.262;2023-10-31T12:49:10;2.37;;;1.30;;
12838;SDS011;6486;51.034;5.262;2023-10-31T12:51:38;0.87;;;0.53;;
12838;SDS011;6486;51.034;5.262;2023-10-31T12:54:26;1.23;;;1.00;;
12838;SDS011;6486;51.034;5.262;2023-10-31T12:57:08;2.83;;;1.70;;
12838;SDS011;6486;51.034;5.262;2023-10-31T12:59:35;1.27;;;0.30;;
12838;SDS011;6486;51.034;5.262;2023-10-31T13:02:02;0.50;;;0.50;;
12838;SDS011;6486;51.034;5.262;2023-10-31T13:04:32;0.60;;;0.60;;
12838;SDS011;6486;51.034;5.262;2023-10-31T13:06:59;0.60;;;0.37;;
12838;SDS011;6486;51.034;5.262;2023-10-31T13:09:36;0.77;;;0.77;;
12838;SDS011;6486;51.034;5.262;2023-10-31T13:12:07;0.70;;;0.70;;
12838;SDS011;6486;51.034;5.262;2023-10-31T13:14:36;2.50;;;1.10;;
12838;SDS011;6486;51.034;5.262;2023-10-31T13:17:03;1.03;;;0.97;;
12838;SDS011;6486;51.034;5.262;2023-10-31T13:19:28;1.00;;;1.00;;
12838;SDS011;6486;51.034;5.262;2023-10-31T13:21:54;0.93;;;0.63;;
12838;SDS011;6486;51.034;5.262;2023-10-31T13:24:20;0.67;;;0.50;;
12838;SDS011;6486;51.034;5.262;2023-10-31T13:26:46;1.07;;;0.63;;
12838;SDS011;6486;51.034;5.262;2023-10-31T13:29:16;2.03;;;1.03;;
12838;SDS011;6486;51.034;5.262;2023-10-31T13:31:42;4.00;;;0.93;;
12838;SDS011;6486;51.034;5.262;2023-10-31T13:34:08;1.13;;;0.87;;
12838;SDS011;6486;51.034;5.262;2023-10-31T13:36:33;3.30;;;1.77;;
12838;SDS011;6486;51.034;5.262;2023-10-31T13:39:02;2.27;;;2.07;;
12838;SDS011;6486;51.034;5.262;2023-10-31T13:41:27;1.13;;;1.13;;
12838;SDS011;6486;51.034;5.262;2023-10-31T13:43:53;0.80;;;0.77;;
12838;SDS011;6486;51.034;5.262;2023-10-31T13:46:19;0.70;;;0.60;;
12838;SDS011;6486;51.034;5.262;2023-10-31T13:48:44;0.77;;;0.70;;
12838;SDS011;6486;51.034;5.262;2023-10-31T13:51:10;1.17;;;1.17;;
12838;SDS011;6486;51.034;5.262;2023-10-31T13:53:36;2.93;;;0.80;;
12838;SDS011;6486;51.034;5.262;2023-10-31T13:56:01;6.30;;;1.93;;
12838;SDS011;6486;51.034;5.262;2023-10-31T13:58:28;2.17;;;0.53;;
12838;SDS011;6486;51.034;5.262;2023-10-31T14:00:53;1.10;;;0.80;;
12838;SDS011;6486;51.034;5.262;2023-10-31T14:03:19;0.57;;;0.53;;
12838;SDS011;6486;51.034;5.262;2023-10-31T14:05:45;0.93;;;0.90;;
12838;SDS011;6486;51.034;5.262;2023-10-31T14:08:10;1.63;;;0.80;;
12838;SDS011;6486;51.034;5.262;2023-10-31T14:10:36;1.03;;;0.90;;
12838;SDS011;6486;51.034;5.262;2023-10-31T14:13:02;0.80;;;0.80;;
12838;SDS011;6486;51.034;5.262;2023-10-31T14:15:27;0.67;;;0.50;;
12838;SDS011;6486;51.034;5.262;2023-10-31T14:17:53;0.90;;;0.47;;
12838;SDS011;6486;51.034;5.262;2023-10-31T14:20:18;1.17;;;0.80;;
12838;SDS011;6486;51.034;5.262;2023-10-31T14:22:50;0.57;;;0.57;;
12838;SDS011;6486;51.034;5.262;2023-10-31T14:25:16;0.43;;;0.43;;
12838;SDS011;6486;51.034;5.262;2023-10-31T14:27:42;3.80;;;0.83;;
12838;SDS011;6486;51.034;5.262;2023-10-31T14:30:08;0.67;;;0.53;;
12838;SDS011;6486;51.034;5.262;2023-10-31T14:32:38;3.10;;;0.40;;
12838;SDS011;6486;51.034;5.262;2023-10-31T14:35:04;1.23;;;1.13;;
12838;SDS011;6486;51.034;5.262;2023-10-31T14:37:31;0.87;;;0.60;;
12838;SDS011;6486;51.034;5.262;2023-10-31T14:39:57;0.60;;;0.60;;
12838;SDS011;6486;51.034;5.262;2023-10-31T14:42:23;1.13;;;0.80;;
12838;SDS011;6486;51.034;5.262;2023-10-31T14:44:48;0.97;;;0.80;;
12838;SDS011;6486;51.034;5.262;2023-10-31T14:47:14;0.47;;;0.47;;
12838;SDS011;6486;51.034;5.262;2023-10-31T14:49:39;0.63;;;0.63;;
12838;SDS011;6486;51.034;5.262;2023-10-31T14:52:05;0.43;;;0.43;;
12838;SDS011;6486;51.034;5.262;2023-10-31T14:54:33;1.23;;;0.77;;
12838;SDS011;6486;51.034;5.262;2023-10-31T14:57:00;3.10;;;1.57;;
12838;SDS011;6486;51.034;5.262;2023-10-31T14:59:26;0.57;;;0.57;;
12838;SDS011;6486;51.034;5.262;2023-10-31T15:01:51;0.40;;;0.40;;
12838;SDS011;6486;51.034;5.262;2023-10-31T15:04:17;1.20;;;0.77;;